createdAt,value
2024-02-08T00:00:10.017Z,2.22
2024-02-08T00:02:37.120Z,4.75
2024-02-08T00:05:05.267Z,1.67
2024-02-08T00:07:32.422Z,2.83
2024-02-08T00:09:59.281Z,1.92
2024-02-08T00:12:26.330Z,3.47
2024-02-08T00:14:53.401Z,2.63
2024-02-08T00:17:21.351Z,2.22
2024-02-08T00:19:51.235Z,4.50
2024-02-08T00:22:21.580Z,2.63
2024-02-08T00:24:48.860Z,2.42
2024-02-08T00:27:19.715Z,4.03
2024-02-08T00:29:46.949Z,2.53
2024-02-08T00:32:14.071Z,5.93
2024-02-08T00:34:41.894Z,2.20
2024-02-08T00:37:09.416Z,5.90
2024-02-08T00:39:40.329Z,3.33
2024-02-08T00:42:07.368Z,4.43
2024-02-08T00:44:34.227Z,4.25
2024-02-08T00:47:01.196Z,3.35
2024-02-08T00:49:28.169Z,4.15
2024-02-08T00:51:54.975Z,2.83
2024-02-08T00:54:21.899Z,2.58
2024-02-08T00:56:48.796Z,4.20
2024-02-08T00:59:17.095Z,3.38
2024-02-08T01:01:44.170Z,3.72
2024-02-08T01:04:12.243Z,2.38
2024-02-08T01:06:42.218Z,2.88
2024-02-08T01:09:09.545Z,6.95
2024-02-08T01:11:36.462Z,4.30
2024-02-08T01:14:03.431Z,3.17
2024-02-08T01:16:34.604Z,4.65
2024-02-08T01:19:01.600Z,4.43
2024-02-08T01:21:28.653Z,2.70
2024-02-08T01:23:55.456Z,3.90
2024-02-08T01:26:22.291Z,3.15
2024-02-08T01:28:49.177Z,4.88
2024-02-08T01:31:16.026Z,5.00
2024-02-08T01:33:43.464Z,4.00
2024-02-08T01:36:11.803Z,4.70
2024-02-08T01:38:38.700Z,5.35
2024-02-08T01:41:07.498Z,4.65
2024-02-08T01:43:35.342Z,2.35
2024-02-08T01:46:03.882Z,4.13
2024-02-08T01:48:31.751Z,4.75
2024-02-08T01:51:03.787Z,2.38
2024-02-08T01:53:30.995Z,3.92
2024-02-08T01:56:01.444Z,2.47
2024-02-08T01:58:29.896Z,1.52
2024-02-08T02:01:07.447Z,2.67
2024-02-08T02:03:34.457Z,5.38
2024-02-08T02:06:01.847Z,1.92
2024-02-08T02:08:29.547Z,2.20
2024-02-08T02:11:16.688Z,1.98
2024-02-08T02:13:44.638Z,2.50
2024-02-08T02:16:11.709Z,2.05
2024-02-08T02:18:40.612Z,2.60
2024-02-08T02:21:14.814Z,3.70
2024-02-08T02:23:43.125Z,1.80
2024-02-08T02:26:13.430Z,2.90
2024-02-08T02:28:42.069Z,1.30
2024-02-08T02:31:14.753Z,1.25
2024-02-08T02:33:43.346Z,2.53
2024-02-08T02:36:13.524Z,3.53
2024-02-08T02:38:42.684Z,2.75
2024-02-08T02:41:10.006Z,1.48
2024-02-08T02:43:38.166Z,1.70
2024-02-08T02:46:08.062Z,8.02
2024-02-08T02:48:42.684Z,2.60
2024-02-08T02:51:13.511Z,2.60
2024-02-08T02:53:43.865Z,3.58
2024-02-08T02:56:13.318Z,0.98
2024-02-08T02:58:41.218Z,1.45
2024-02-08T03:01:08.398Z,1.85
2024-02-08T03:03:42.259Z,5.28
2024-02-08T03:06:16.693Z,1.95
2024-02-08T03:08:48.254Z,3.95
2024-02-08T03:11:15.961Z,1.45
2024-02-08T03:13:47.252Z,0.98
2024-02-08T03:16:18.725Z,1.08
2024-02-08T03:18:47.955Z,1.55
2024-02-08T03:21:19.664Z,1.80
2024-02-08T03:23:51.088Z,3.10
2024-02-08T03:26:20.922Z,1.10
2024-02-08T03:28:50.047Z,2.75
2024-02-08T03:31:18.972Z,2.53
2024-02-08T03:33:46.550Z,3.10
2024-02-08T03:36:13.683Z,1.38
2024-02-08T03:38:41.213Z,1.52
2024-02-08T03:41:09.146Z,1.60
2024-02-08T03:43:36.427Z,3.40
2024-02-08T03:46:06.215Z,1.95
2024-02-08T03:48:33.992Z,1.30
2024-02-08T03:51:02.395Z,2.05
2024-02-08T03:53:30.724Z,0.90
2024-02-08T03:55:57.962Z,1.88
2024-02-08T03:58:25.526Z,2.50
2024-02-08T04:00:55.448Z,1.23
2024-02-08T04:03:45.777Z,2.28
2024-02-08T04:06:38.789Z,1.40
2024-02-08T04:09:10.199Z,0.85
2024-02-08T04:11:55.961Z,0.80
2024-02-08T04:14:41.431Z,1.38
2024-02-08T04:17:26.973Z,1.95
2024-02-08T04:20:12.512Z,0.60
2024-02-08T04:22:57.853Z,2.05
2024-02-08T04:25:43.224Z,1.20
2024-02-08T04:28:28.780Z,1.02
2024-02-08T04:31:14.534Z,1.02
2024-02-08T04:33:59.913Z,1.73
2024-02-08T04:36:45.408Z,0.82
2024-02-08T04:39:30.775Z,0.55
2024-02-08T04:42:16.194Z,1.52
2024-02-08T04:45:01.644Z,0.77
2024-02-08T04:48:00.544Z,1.02
2024-02-08T04:50:46.336Z,0.80
2024-02-08T04:53:31.657Z,0.70
2024-02-08T04:55:58.690Z,1.33
2024-02-08T04:58:48.105Z,2.40
2024-02-08T05:01:15.417Z,2.15
2024-02-08T05:03:43.640Z,0.98
2024-02-08T05:06:20.393Z,0.77
2024-02-08T05:08:50.439Z,0.90
2024-02-08T05:11:17.658Z,1.00
2024-02-08T05:13:52.494Z,1.80
2024-02-08T05:16:20.297Z,0.70
2024-02-08T05:18:49.014Z,0.63
2024-02-08T05:21:17.737Z,0.95
2024-02-08T05:23:45.898Z,0.85
2024-02-08T05:26:26.773Z,1.60
2024-02-08T05:28:55.212Z,1.10
2024-02-08T05:31:22.307Z,0.82
2024-02-08T05:33:53.433Z,0.70
2024-02-08T05:36:21.235Z,0.80
2024-02-08T05:38:48.905Z,0.93
2024-02-08T05:41:17.261Z,0.75
2024-02-08T05:43:48.628Z,0.73
2024-02-08T05:46:21.274Z,1.33
2024-02-08T05:48:52.873Z,1.55
2024-02-08T05:51:23.728Z,0.90
2024-02-08T05:53:53.024Z,0.70
2024-02-08T05:56:22.601Z,1.13
2024-02-08T05:59:02.547Z,1.38
2024-02-08T06:01:33.405Z,2.85
2024-02-08T06:04:04.436Z,0.90
2024-02-08T06:06:43.192Z,1.15
2024-02-08T06:09:34.092Z,1.60
2024-02-08T06:12:09.936Z,1.80
2024-02-08T06:14:40.470Z,0.80
2024-02-08T06:17:11.077Z,1.10
2024-02-08T06:19:41.266Z,0.82
2024-02-08T06:22:21.405Z,3.47
2024-02-08T06:24:51.226Z,2.75
2024-02-08T06:27:24.655Z,1.25
2024-02-08T06:29:51.750Z,1.13
2024-02-08T06:32:35.407Z,2.05
2024-02-08T06:35:29.087Z,0.98
2024-02-08T06:38:04.010Z,2.15
2024-02-08T06:40:50.500Z,1.08
2024-02-08T06:43:22.099Z,1.48
2024-02-08T06:45:53.056Z,1.83
2024-02-08T06:48:46.188Z,1.85
2024-02-08T06:51:31.561Z,1.90
2024-02-08T06:54:17.163Z,1.40
2024-02-08T06:57:02.638Z,3.40
2024-02-08T06:59:48.692Z,1.05
2024-02-08T07:02:34.343Z,2.33
2024-02-08T07:05:20.086Z,2.38
2024-02-08T07:08:05.462Z,3.15
2024-02-08T07:10:51.488Z,2.17
2024-02-08T07:13:37.157Z,1.48
2024-02-08T07:16:22.511Z,1.42
2024-02-08T07:19:08.941Z,4.43
2024-02-08T07:21:55.092Z,3.33
2024-02-08T07:24:40.989Z,1.23
2024-02-08T07:27:26.592Z,1.90
2024-02-08T07:30:12.287Z,1.25
2024-02-08T07:32:58.204Z,2.22
2024-02-08T07:35:43.732Z,2.35
2024-02-08T07:38:10.944Z,1.45
2024-02-08T07:40:38.514Z,3.10
2024-02-08T07:43:14.910Z,5.43
2024-02-08T07:45:48.167Z,1.90
2024-02-08T07:48:36.813Z,3.08
2024-02-08T07:51:04.948Z,1.35
2024-02-08T07:53:53.151Z,1.50
2024-02-08T07:56:26.741Z,1.15
2024-02-08T07:59:04.749Z,2.28
2024-02-08T08:01:51.047Z,1.80
2024-02-08T08:04:42.038Z,1.70
2024-02-08T08:07:11.129Z,2.33
2024-02-08T08:09:39.111Z,3.00
2024-02-08T08:12:07.090Z,4.57
2024-02-08T08:14:40.894Z,2.22
2024-02-08T08:17:16.889Z,8.25
2024-02-08T08:19:47.186Z,2.85
2024-02-08T08:22:41.623Z,5.22
2024-02-08T08:25:12.988Z,5.97
2024-02-08T08:27:52.241Z,5.13
2024-02-08T08:30:31.818Z,8.00
2024-02-08T08:33:03.725Z,6.97
2024-02-08T08:35:37.220Z,13.20
2024-02-08T08:38:20.420Z,9.00
2024-02-08T08:41:02.011Z,5.95
2024-02-08T08:43:33.355Z,8.82
2024-02-08T08:46:01.155Z,6.53
2024-02-08T08:48:33.788Z,6.82
2024-02-08T08:51:12.624Z,7.95
2024-02-08T08:53:58.022Z,5.57
2024-02-08T08:56:29.397Z,6.60
2024-02-08T08:59:00.370Z,6.47
2024-02-08T09:01:29.145Z,6.03
2024-02-08T09:03:58.299Z,5.82
2024-02-08T09:06:28.872Z,6.57
2024-02-08T09:09:00.336Z,7.75
2024-02-08T09:11:27.993Z,7.57
2024-02-08T09:13:55.955Z,4.60
2024-02-08T09:16:24.111Z,3.53
2024-02-08T09:19:01.284Z,3.63
2024-02-08T09:21:36.432Z,3.55
2024-02-08T09:24:06.299Z,1.48
2024-02-08T09:26:49.856Z,1.75
2024-02-08T09:29:31.256Z,1.90
2024-02-08T09:32:17.105Z,1.15
2024-02-08T09:34:47.641Z,3.63
2024-02-08T09:37:16.718Z,1.52
2024-02-08T09:40:16.797Z,2.88
2024-02-08T09:42:55.952Z,0.65
2024-02-08T09:45:34.093Z,1.30
2024-02-08T09:48:16.885Z,1.55
2024-02-08T09:50:49.166Z,1.42
2024-02-08T09:53:29.609Z,1.63
2024-02-08T09:56:16.827Z,1.30
2024-02-08T10:01:36.968Z,4.07
2024-02-08T10:04:16.986Z,5.68
2024-02-08T10:06:57.836Z,8.73
2024-02-08T10:09:49.122Z,10.27
2024-02-08T10:12:30.356Z,8.80
2024-02-08T10:15:01.513Z,12.45
2024-02-08T10:17:53.212Z,12.63
2024-02-08T10:20:23.582Z,9.07
2024-02-08T10:23:09.921Z,11.07
2024-02-08T10:25:55.585Z,9.80
2024-02-08T10:28:25.040Z,10.07
2024-02-08T10:31:13.867Z,11.30
2024-02-08T10:33:41.866Z,9.52
2024-02-08T10:36:16.826Z,9.85
2024-02-08T10:39:03.904Z,9.82
2024-02-08T10:41:55.739Z,13.05
2024-02-08T10:44:25.643Z,8.20
2024-02-08T10:47:08.367Z,6.13
2024-02-08T10:49:46.201Z,8.90
2024-02-08T10:52:18.020Z,8.52
2024-02-08T10:54:53.271Z,6.70
2024-02-08T10:57:47.780Z,5.50
2024-02-08T11:00:37.675Z,7.53
2024-02-08T11:03:35.088Z,6.40
2024-02-08T11:06:09.677Z,7.90
2024-02-08T11:08:52.156Z,9.13
2024-02-08T11:11:22.434Z,8.57
2024-02-08T11:13:54.752Z,9.20
2024-02-08T11:16:29.030Z,7.38
2024-02-08T11:18:56.901Z,8.80
2024-02-08T11:21:45.906Z,7.20
2024-02-08T11:24:30.525Z,7.15
2024-02-08T11:27:03.229Z,7.90
2024-02-08T11:29:46.820Z,6.78
2024-02-08T11:32:18.048Z,8.23
2024-02-08T11:34:48.518Z,8.45
2024-02-08T11:37:20.433Z,5.15
2024-02-08T11:39:59.151Z,10.90
2024-02-08T11:42:37.741Z,5.90
2024-02-08T11:45:10.228Z,6.53
2024-02-08T11:47:43.261Z,6.57
2024-02-08T11:52:59.491Z,7.93
2024-02-08T11:55:30.057Z,11.13
2024-02-08T11:57:58.119Z,9.45
2024-02-08T12:00:26.114Z,6.93
2024-02-08T12:03:00.679Z,5.65
2024-02-08T12:05:29.706Z,10.07
2024-02-08T12:08:11.313Z,4.82
2024-02-08T12:10:40.283Z,5.60
2024-02-08T12:13:14.749Z,5.13
2024-02-08T12:15:49.227Z,6.28
2024-02-08T12:18:16.179Z,8.32
2024-02-08T12:20:45.110Z,10.85
2024-02-08T12:23:16.143Z,9.43
2024-02-08T12:25:44.302Z,7.20
2024-02-08T12:28:12.620Z,8.30
2024-02-08T12:30:42.586Z,8.68
2024-02-08T12:33:11.722Z,7.60
2024-02-08T12:35:44.534Z,7.88
2024-02-08T12:38:14.613Z,9.07
2024-02-08T12:40:43.990Z,8.63
2024-02-08T12:43:12.735Z,7.38
2024-02-08T12:45:40.262Z,6.53
2024-02-08T12:48:09.766Z,7.90
2024-02-08T12:50:39.933Z,9.00
2024-02-08T12:53:07.732Z,7.45
2024-02-08T12:55:35.030Z,9.00
2024-02-08T12:58:04.792Z,6.22
2024-02-08T13:00:36.910Z,8.65
2024-02-08T13:03:08.127Z,9.23
2024-02-08T13:05:43.043Z,8.27
2024-02-08T13:08:11.416Z,10.98
2024-02-08T13:10:41.159Z,9.00
2024-02-08T13:13:12.547Z,10.63
2024-02-08T13:15:43.879Z,11.32
2024-02-08T13:18:13.106Z,8.93
2024-02-08T13:20:43.981Z,8.05
2024-02-08T13:23:12.034Z,10.75
2024-02-08T13:25:41.219Z,11.88
2024-02-08T13:28:11.648Z,11.90
2024-02-08T13:30:41.580Z,11.85
2024-02-08T13:33:11.906Z,12.38
2024-02-08T13:35:42.173Z,14.35
2024-02-08T13:38:13.680Z,11.93
2024-02-08T13:40:44.709Z,10.60
2024-02-08T13:43:13.378Z,10.95
2024-02-08T13:45:41.919Z,15.55
2024-02-08T13:48:14.483Z,15.43
2024-02-08T13:53:16.364Z,16.60
2024-02-08T13:55:55.448Z,15.82
2024-02-08T13:58:27.552Z,11.73
2024-02-08T14:00:59.732Z,14.10
2024-02-08T14:03:31.209Z,14.73
2024-02-08T14:06:01.304Z,14.60
2024-02-08T14:08:29.961Z,15.88
2024-02-08T14:10:59.756Z,15.77
2024-02-08T14:13:31.223Z,15.50
2024-02-08T14:16:06.792Z,15.90
2024-02-08T14:18:38.879Z,15.45
2024-02-08T14:21:11.019Z,12.80
2024-02-08T14:23:49.990Z,18.48
2024-02-08T14:26:20.339Z,14.50
2024-02-08T14:28:47.911Z,17.25
2024-02-08T14:31:16.297Z,13.43
2024-02-08T14:33:47.417Z,14.25
2024-02-08T14:36:15.755Z,16.05
2024-02-08T14:38:47.436Z,13.80
2024-02-08T14:41:27.945Z,21.27
2024-02-08T14:44:07.690Z,17.60
2024-02-08T14:46:37.890Z,15.77
2024-02-08T14:49:19.120Z,21.55
2024-02-08T14:51:50.090Z,18.75
2024-02-08T14:54:20.639Z,16.88
2024-02-08T14:57:05.925Z,13.80
2024-02-08T14:59:55.804Z,17.35
2024-02-08T15:02:30.723Z,16.42
2024-02-08T15:05:02.235Z,18.65
2024-02-08T15:07:52.595Z,18.92
2024-02-08T15:10:38.460Z,26.25
2024-02-08T15:13:13.289Z,16.88
2024-02-08T15:15:41.450Z,17.50
2024-02-08T15:18:15.224Z,16.40
2024-02-08T15:20:48.934Z,16.80
2024-02-08T15:23:49.683Z,18.48
2024-02-08T15:26:26.076Z,19.63
2024-02-08T15:28:58.668Z,16.95
2024-02-08T15:31:47.322Z,18.50
2024-02-08T15:34:18.110Z,25.88
2024-02-08T15:36:52.063Z,20.33
2024-02-08T15:39:49.128Z,18.52
2024-02-08T15:42:20.057Z,20.27
2024-02-08T15:44:53.848Z,17.58
2024-02-08T15:47:21.922Z,17.50
2024-02-08T15:49:56.136Z,19.63
2024-02-08T15:52:30.651Z,18.42
2024-02-08T15:54:59.990Z,22.02
2024-02-08T15:57:34.347Z,25.88
2024-02-08T16:00:01.955Z,16.80
2024-02-08T16:02:37.043Z,18.27
2024-02-08T16:05:14.670Z,21.40
2024-02-08T16:07:44.191Z,19.75
2024-02-08T16:10:25.966Z,18.60
2024-02-08T16:13:06.286Z,21.17
2024-02-08T16:15:51.192Z,20.55
2024-02-08T16:18:30.564Z,20.40
2024-02-08T16:20:59.768Z,21.83
2024-02-08T16:23:45.117Z,24.77
2024-02-08T16:26:16.081Z,20.10
2024-02-08T16:28:51.348Z,18.50
2024-02-08T16:31:19.157Z,20.08
2024-02-08T16:33:56.160Z,22.73
2024-02-08T16:36:31.126Z,19.48
2024-02-08T16:39:10.134Z,22.52
2024-02-08T16:41:49.657Z,25.08
2024-02-08T16:44:23.746Z,26.80
2024-02-08T16:46:56.111Z,23.67
2024-02-08T16:49:29.048Z,24.83
2024-02-08T16:51:57.152Z,25.60
2024-02-08T16:54:27.491Z,25.70
2024-02-08T16:56:57.659Z,24.08
2024-02-08T16:59:35.251Z,27.65
2024-02-08T17:02:08.660Z,23.92
2024-02-08T17:04:50.170Z,26.45
2024-02-08T17:07:40.536Z,26.52
2024-02-08T17:10:10.076Z,27.90
2024-02-08T17:12:51.141Z,27.10
2024-02-08T17:15:30.081Z,29.08
2024-02-08T17:18:07.673Z,25.33
2024-02-08T17:20:54.329Z,30.13
2024-02-08T17:23:29.434Z,25.58
2024-02-08T17:26:07.938Z,31.55
2024-02-08T17:28:51.129Z,25.55
2024-02-08T17:31:30.215Z,31.92
2024-02-08T17:33:58.367Z,31.95
2024-02-08T17:36:32.250Z,36.13
2024-02-08T17:38:59.162Z,30.33
2024-02-08T17:41:28.569Z,33.45
2024-02-08T17:44:05.132Z,34.28
2024-02-08T17:46:39.374Z,34.38
2024-02-08T17:49:06.966Z,38.45
2024-02-08T17:51:39.070Z,37.30
2024-02-08T17:54:09.888Z,40.28
2024-02-08T17:56:43.423Z,40.38
2024-02-08T17:59:18.865Z,41.38
2024-02-08T18:02:02.385Z,37.78
2024-02-08T18:04:38.389Z,36.80
2024-02-08T18:07:11.057Z,42.08
2024-02-08T18:09:55.221Z,40.33
2024-02-08T18:12:29.835Z,41.72
2024-02-08T18:15:12.346Z,42.63
2024-02-08T18:17:46.325Z,39.38
2024-02-08T18:20:17.476Z,39.75
2024-02-08T18:22:50.070Z,35.53
2024-02-08T18:25:44.283Z,38.55
2024-02-08T18:30:38.848Z,40.25
2024-02-08T18:33:06.719Z,36.42
2024-02-08T18:35:35.580Z,38.38
2024-02-08T18:38:09.922Z,33.58
2024-02-08T18:40:39.311Z,37.10
2024-02-08T18:43:07.572Z,34.40
2024-02-08T18:45:42.301Z,32.95
2024-02-08T18:48:15.288Z,36.15
2024-02-08T18:50:50.392Z,36.00
2024-02-08T18:53:21.054Z,36.72
2024-02-08T18:55:52.565Z,34.40
2024-02-08T18:58:20.232Z,35.92
2024-02-08T19:00:50.778Z,37.63
2024-02-08T19:03:21.005Z,34.15
2024-02-08T19:05:49.853Z,36.80
2024-02-08T19:08:22.566Z,35.70
2024-02-08T19:10:54.313Z,33.15
2024-02-08T19:13:28.919Z,31.23
2024-02-08T19:15:58.469Z,31.95
2024-02-08T19:18:28.117Z,39.78
2024-02-08T19:20:58.664Z,30.83
2024-02-08T19:23:25.627Z,32.30
2024-02-08T19:25:58.954Z,28.55
2024-02-08T19:28:26.785Z,30.35
2024-02-08T19:30:56.951Z,28.77
2024-02-08T19:33:27.039Z,29.50
2024-02-08T19:35:57.452Z,30.98
2024-02-08T19:38:30.834Z,26.95
2024-02-08T19:40:57.816Z,25.27
2024-02-08T19:43:27.796Z,29.88
2024-02-08T19:45:55.516Z,27.20
2024-02-08T19:48:26.673Z,26.20
2024-02-08T19:50:54.424Z,28.25
2024-02-08T19:53:29.682Z,28.85
2024-02-08T19:55:56.977Z,28.92
2024-02-08T19:58:24.533Z,25.73
2024-02-08T20:01:00.256Z,27.83
2024-02-08T20:03:34.615Z,23.77
2024-02-08T20:06:02.703Z,26.63
2024-02-08T20:08:30.810Z,27.15
2024-02-08T20:10:58.651Z,27.08
2024-02-08T20:13:31.127Z,22.00
2024-02-08T20:15:58.399Z,22.87
2024-02-08T20:18:26.346Z,28.73
2024-02-08T20:20:53.704Z,30.02
2024-02-08T20:23:23.285Z,25.27
2024-02-08T20:25:51.483Z,26.90
2024-02-08T20:28:19.118Z,29.45
2024-02-08T20:30:50.232Z,27.55
2024-02-08T20:33:19.967Z,28.98
2024-02-08T20:35:47.437Z,23.55
2024-02-08T20:38:19.432Z,23.83
2024-02-08T20:40:47.521Z,24.00
2024-02-08T20:43:19.243Z,24.00
2024-02-08T20:45:50.655Z,30.35
2024-02-08T20:48:20.369Z,27.83
2024-02-08T20:50:48.523Z,26.80
2024-02-08T20:53:18.814Z,27.73
2024-02-08T20:55:48.745Z,27.52
2024-02-08T20:58:18.531Z,28.45
2024-02-08T21:00:48.069Z,26.15
2024-02-08T21:03:17.406Z,25.52
2024-02-08T21:05:50.002Z,27.00
2024-02-08T21:08:18.850Z,25.73
2024-02-08T21:10:48.653Z,28.02
2024-02-08T21:13:18.606Z,24.70
2024-02-08T21:15:46.472Z,25.38
2024-02-08T21:18:20.037Z,26.77
2024-02-08T21:20:47.940Z,22.65
2024-02-08T21:23:14.995Z,25.67
2024-02-08T21:25:42.153Z,27.88
2024-02-08T21:28:13.160Z,25.00
2024-02-08T21:30:43.332Z,24.50
2024-02-08T21:33:11.745Z,22.35
2024-02-08T21:35:39.185Z,23.58
2024-02-08T21:38:07.518Z,25.35
2024-02-08T21:40:36.216Z,22.88
2024-02-08T21:43:11.408Z,27.77
2024-02-08T21:45:45.536Z,25.70
2024-02-08T21:48:16.051Z,25.85
2024-02-08T21:50:48.710Z,30.02
2024-02-08T21:53:17.871Z,27.90
2024-02-08T21:55:45.128Z,24.38
2024-02-08T21:58:13.212Z,24.73
2024-02-08T22:00:43.030Z,27.30
2024-02-08T22:03:10.114Z,29.50
2024-02-08T22:05:37.501Z,24.80
2024-02-08T22:08:05.171Z,26.20
2024-02-08T22:10:34.553Z,26.55
2024-02-08T22:13:07.227Z,25.83
2024-02-08T22:15:34.880Z,24.90
2024-02-08T22:18:05.708Z,28.65
2024-02-08T22:20:33.869Z,23.88
2024-02-08T22:23:01.071Z,26.25
2024-02-08T22:25:28.044Z,26.30
2024-02-08T22:27:55.993Z,25.50
2024-02-08T22:30:23.075Z,27.75
2024-02-08T22:32:53.693Z,25.95
2024-02-08T22:35:20.766Z,25.33
2024-02-08T22:37:49.933Z,23.13
2024-02-08T22:40:20.328Z,26.38
2024-02-08T22:42:47.712Z,22.23
2024-02-08T22:45:15.353Z,22.80
2024-02-08T22:47:43.647Z,26.60
2024-02-08T22:50:14.872Z,24.40
2024-02-08T22:52:47.177Z,25.17
2024-02-08T22:55:23.217Z,25.40
2024-02-08T22:57:56.972Z,27.88
2024-02-08T23:03:11.282Z,24.20
2024-02-08T23:05:41.619Z,24.67
2024-02-08T23:08:12.201Z,23.80
2024-02-08T23:10:40.190Z,23.58
2024-02-08T23:13:11.790Z,25.45
2024-02-08T23:15:46.975Z,24.02
2024-02-08T23:18:23.241Z,24.95
2024-02-08T23:20:54.930Z,26.38
2024-02-08T23:23:22.303Z,26.15
2024-02-08T23:25:49.864Z,24.65
2024-02-08T23:28:21.489Z,23.60
2024-02-08T23:30:49.124Z,24.95
2024-02-08T23:33:19.161Z,24.27
2024-02-08T23:35:46.903Z,25.50
2024-02-08T23:38:20.131Z,24.52
2024-02-08T23:40:49.219Z,25.30
2024-02-08T23:43:16.758Z,25.02
2024-02-08T23:45:44.496Z,25.70
2024-02-08T23:48:11.721Z,22.83
2024-02-08T23:50:38.629Z,25.38
2024-02-08T23:53:05.834Z,23.33
2024-02-08T23:55:36.729Z,24.83
2024-02-08T23:58:05.424Z,23.60
